sensor_id;sensor_type;location;lat;lon;timestamp;P1;durP1;ratioP1;P2;durP2;ratioP2
7707;SDS011;3896;48.758;8.888;2023-11-21T00:00:04;2.13;;;1.07;;
7707;SDS011;3896;48.758;8.888;2023-11-21T00:02:35;1.17;;;1.07;;
7707;SDS011;3896;48.758;8.888;2023-11-21T00:05:03;1.40;;;0.97;;
7707;SDS011;3896;48.758;8.888;2023-11-21T00:07:29;1.67;;;1.17;;
7707;SDS011;3896;48.758;8.888;2023-11-21T00:09:55;2.30;;;1.00;;
7707;SDS011;3896;48.758;8.888;2023-11-21T00:12:21;2.10;;;1.03;;
7707;SDS011;3896;48.758;8.888;2023-11-21T00:14:46;0.70;;;0.70;;
7707;SDS011;3896;48.758;8.888;2023-11-21T00:17:12;2.80;;;1.00;;
7707;SDS011;3896;48.758;8.888;2023-11-21T00:19:37;1.47;;;1.37;;
7707;SDS011;3896;48.758;8.888;2023-11-21T00:22:03;1.47;;;0.87;;
7707;SDS011;3896;48.758;8.888;2023-11-21T00:24:29;1.20;;;1.10;;
7707;SDS011;3896;48.758;8.888;2023-11-21T00:26:54;1.70;;;1.13;;
7707;SDS011;3896;48.758;8.888;2023-11-21T00:29:20;1.83;;;1.73;;
7707;SDS011;3896;48.758;8.888;2023-11-21T00:31:45;0.90;;;0.90;;
7707;SDS011;3896;48.758;8.888;2023-11-21T00:34:11;2.13;;;1.57;;
7707;SDS011;3896;48.758;8.888;2023-11-21T00:36:37;3.77;;;1.10;;
7707;SDS011;3896;48.758;8.888;2023-11-21T00:39:03;1.83;;;1.20;;
7707;SDS011;3896;48.758;8.888;2023-11-21T00:41:30;1.10;;;1.00;;
7707;SDS011;3896;48.758;8.888;2023-11-21T00:43:56;3.00;;;1.27;;
7707;SDS011;3896;48.758;8.888;2023-11-21T00:46:22;3.77;;;1.97;;
7707;SDS011;3896;48.758;8.888;2023-11-21T00:48:49;2.60;;;1.97;;
7707;SDS011;3896;48.758;8.888;2023-11-21T00:51:14;1.20;;;1.10;;
7707;SDS011;3896;48.758;8.888;2023-11-21T00:53:40;2.20;;;1.50;;
7707;SDS011;3896;48.758;8.888;2023-11-21T00:56:06;1.37;;;1.30;;
7707;SDS011;3896;48.758;8.888;2023-11-21T00:58:33;3.37;;;1.40;;
7707;SDS011;3896;48.758;8.888;2023-11-21T01:00:59;1.77;;;1.20;;
7707;SDS011;3896;48.758;8.888;2023-11-21T01:03:24;3.83;;;1.60;;
7707;SDS011;3896;48.758;8.888;2023-11-21T01:05:50;3.57;;;1.50;;
7707;SDS011;3896;48.758;8.888;2023-11-21T01:08:15;5.40;;;1.77;;
7707;SDS011;3896;48.758;8.888;2023-11-21T01:10:41;1.60;;;1.50;;
7707;SDS011;3896;48.758;8.888;2023-11-21T01:13:06;2.17;;;1.40;;
7707;SDS011;3896;48.758;8.888;2023-11-21T01:15:32;2.93;;;1.50;;
7707;SDS011;3896;48.758;8.888;2023-11-21T01:17:58;4.80;;;1.67;;
7707;SDS011;3896;48.758;8.888;2023-11-21T01:20:24;3.67;;;1.80;;
7707;SDS011;3896;48.758;8.888;2023-11-21T01:22:50;2.03;;;1.57;;
7707;SDS011;3896;48.758;8.888;2023-11-21T01:25:15;4.00;;;1.17;;
7707;SDS011;3896;48.758;8.888;2023-11-21T01:27:41;1.90;;;1.30;;
7707;SDS011;3896;48.758;8.888;2023-11-21T01:30:07;2.23;;;1.13;;
7707;SDS011;3896;48.758;8.888;2023-11-21T01:32:35;1.57;;;1.27;;
7707;SDS011;3896;48.758;8.888;2023-11-21T01:35:01;2.53;;;1.70;;
7707;SDS011;3896;48.758;8.888;2023-11-21T01:37:27;3.50;;;1.70;;
7707;SDS011;3896;48.758;8.888;2023-11-21T01:39:53;1.60;;;1.50;;
7707;SDS011;3896;48.758;8.888;2023-11-21T01:42:22;4.33;;;1.60;;
7707;SDS011;3896;48.758;8.888;2023-11-21T01:44:48;2.40;;;1.33;;
7707;SDS011;3896;48.758;8.888;2023-11-21T01:47:14;5.60;;;3.47;;
7707;SDS011;3896;48.758;8.888;2023-11-21T01:49:42;2.03;;;1.83;;
7707;SDS011;3896;48.758;8.888;2023-11-21T01:52:10;2.83;;;2.30;;
7707;SDS011;3896;48.758;8.888;2023-11-21T01:54:36;4.50;;;1.57;;
7707;SDS011;3896;48.758;8.888;2023-11-21T01:57:03;2.17;;;1.60;;
7707;SDS011;3896;48.758;8.888;2023-11-21T01:59:34;1.67;;;1.47;;
7707;SDS011;3896;48.758;8.888;2023-11-21T02:02:02;3.40;;;1.37;;
7707;SDS011;3896;48.758;8.888;2023-11-21T02:04:30;1.50;;;1.40;;
7707;SDS011;3896;48.758;8.888;2023-11-21T02:06:57;1.20;;;1.20;;
7707;SDS011;3896;48.758;8.888;2023-11-21T02:09:26;4.10;;;1.47;;
7707;SDS011;3896;48.758;8.888;2023-11-21T02:11:52;1.13;;;1.03;;
7707;SDS011;3896;48.758;8.888;2023-11-21T02:14:19;4.20;;;1.30;;
7707;SDS011;3896;48.758;8.888;2023-11-21T02:16:50;2.40;;;1.10;;
7707;SDS011;3896;48.758;8.888;2023-11-21T02:19:20;3.03;;;1.20;;
7707;SDS011;3896;48.758;8.888;2023-11-21T02:21:49;2.77;;;1.20;;
7707;SDS011;3896;48.758;8.888;2023-11-21T02:24:16;1.57;;;1.10;;
7707;SDS011;3896;48.758;8.888;2023-11-21T02:26:45;1.20;;;1.10;;
7707;SDS011;3896;48.758;8.888;2023-11-21T02:29:11;4.97;;;1.17;;
7707;SDS011;3896;48.758;8.888;2023-11-21T02:31:38;3.30;;;0.80;;
7707;SDS011;3896;48.758;8.888;2023-11-21T02:34:12;3.23;;;1.00;;
7707;SDS011;3896;48.758;8.888;2023-11-21T02:36:39;0.97;;;0.97;;
7707;SDS011;3896;48.758;8.888;2023-11-21T02:39:05;3.10;;;1.00;;
7707;SDS011;3896;48.758;8.888;2023-11-21T02:41:32;1.93;;;1.03;;
7707;SDS011;3896;48.758;8.888;2023-11-21T02:43:59;1.27;;;1.17;;
7707;SDS011;3896;48.758;8.888;2023-11-21T02:46:25;1.87;;;1.10;;
7707;SDS011;3896;48.758;8.888;2023-11-21T02:48:51;1.60;;;0.60;;
7707;SDS011;3896;48.758;8.888;2023-11-21T02:51:18;1.83;;;0.90;;
7707;SDS011;3896;48.758;8.888;2023-11-21T02:53:44;1.30;;;1.20;;
7707;SDS011;3896;48.758;8.888;2023-11-21T02:56:11;2.30;;;1.30;;
7707;SDS011;3896;48.758;8.888;2023-11-21T02:58:37;2.67;;;1.00;;
7707;SDS011;3896;48.758;8.888;2023-11-21T03:01:02;3.33;;;1.20;;
7707;SDS011;3896;48.758;8.888;2023-11-21T03:03:30;3.03;;;1.47;;
7707;SDS011;3896;48.758;8.888;2023-11-21T03:05:56;2.90;;;0.83;;
7707;SDS011;3896;48.758;8.888;2023-11-21T03:08:21;1.23;;;0.90;;
7707;SDS011;3896;48.758;8.888;2023-11-21T03:10:47;1.37;;;1.07;;
7707;SDS011;3896;48.758;8.888;2023-11-21T03:13:12;2.47;;;1.10;;
7707;SDS011;3896;48.758;8.888;2023-11-21T03:15:38;3.27;;;1.10;;
7707;SDS011;3896;48.758;8.888;2023-11-21T03:18:04;2.57;;;1.10;;
7707;SDS011;3896;48.758;8.888;2023-11-21T03:20:30;0.97;;;0.97;;
7707;SDS011;3896;48.758;8.888;2023-11-21T03:22:55;1.37;;;1.27;;
7707;SDS011;3896;48.758;8.888;2023-11-21T03:25:21;1.40;;;1.17;;
7707;SDS011;3896;48.758;8.888;2023-11-21T03:27:48;2.90;;;1.70;;
7707;SDS011;3896;48.758;8.888;2023-11-21T03:30:14;1.17;;;1.17;;
7707;SDS011;3896;48.758;8.888;2023-11-21T03:32:40;7.20;;;4.83;;
7707;SDS011;3896;48.758;8.888;2023-11-21T03:35:05;4.97;;;2.53;;
7707;SDS011;3896;48.758;8.888;2023-11-21T03:37:32;3.70;;;2.73;;
7707;SDS011;3896;48.758;8.888;2023-11-21T03:39:57;3.57;;;2.87;;
7707;SDS011;3896;48.758;8.888;2023-11-21T03:42:23;1.00;;;1.00;;
7707;SDS011;3896;48.758;8.888;2023-11-21T03:44:50;1.40;;;0.80;;
7707;SDS011;3896;48.758;8.888;2023-11-21T03:47:16;1.00;;;1.00;;
7707;SDS011;3896;48.758;8.888;2023-11-21T03:49:41;3.40;;;1.27;;
7707;SDS011;3896;48.758;8.888;2023-11-21T03:52:07;1.87;;;1.10;;
7707;SDS011;3896;48.758;8.888;2023-11-21T03:54:32;0.70;;;0.70;;
7707;SDS011;3896;48.758;8.888;2023-11-21T03:56:58;1.07;;;1.07;;
7707;SDS011;3896;48.758;8.888;2023-11-21T03:59:23;2.13;;;0.80;;
7707;SDS011;3896;48.758;8.888;2023-11-21T04:01:49;1.50;;;0.93;;
7707;SDS011;3896;48.758;8.888;2023-11-21T04:04:15;0.87;;;0.80;;
7707;SDS011;3896;48.758;8.888;2023-11-21T04:06:41;0.93;;;0.90;;
7707;SDS011;3896;48.758;8.888;2023-11-21T04:09:06;3.33;;;1.03;;
7707;SDS011;3896;48.758;8.888;2023-11-21T04:11:32;0.83;;;0.83;;
7707;SDS011;3896;48.758;8.888;2023-11-21T04:13:57;1.57;;;1.00;;
7707;SDS011;3896;48.758;8.888;2023-11-21T04:16:23;2.07;;;0.70;;
7707;SDS011;3896;48.758;8.888;2023-11-21T04:18:49;1.33;;;0.80;;
7707;SDS011;3896;48.758;8.888;2023-11-21T04:21:14;1.10;;;1.03;;
7707;SDS011;3896;48.758;8.888;2023-11-21T04:23:40;1.77;;;0.90;;
7707;SDS011;3896;48.758;8.888;2023-11-21T04:26:05;0.60;;;0.60;;
7707;SDS011;3896;48.758;8.888;2023-11-21T04:28:31;1.37;;;0.80;;
7707;SDS011;3896;48.758;8.888;2023-11-21T04:30:57;1.00;;;0.90;;
7707;SDS011;3896;48.758;8.888;2023-11-21T04:33:22;1.10;;;1.00;;
7707;SDS011;3896;48.758;8.888;2023-11-21T04:35:48;0.80;;;0.80;;
7707;SDS011;3896;48.758;8.888;2023-11-21T04:38:14;4.43;;;1.00;;
7707;SDS011;3896;48.758;8.888;2023-11-21T04:40:39;2.20;;;1.10;;
7707;SDS011;3896;48.758;8.888;2023-11-21T04:43:05;0.83;;;0.83;;
7707;SDS011;3896;48.758;8.888;2023-11-21T04:45:31;0.83;;;0.70;;
7707;SDS011;3896;48.758;8.888;2023-11-21T04:47:56;1.80;;;0.90;;
7707;SDS011;3896;48.758;8.888;2023-11-21T04:50:22;1.30;;;0.80;;
7707;SDS011;3896;48.758;8.888;2023-11-21T04:52:47;0.60;;;0.53;;
7707;SDS011;3896;48.758;8.888;2023-11-21T04:55:13;0.60;;;0.60;;
7707;SDS011;3896;48.758;8.888;2023-11-21T04:57:40;0.80;;;0.80;;
7707;SDS011;3896;48.758;8.888;2023-11-21T05:00:06;1.30;;;0.83;;
7707;SDS011;3896;48.758;8.888;2023-11-21T05:02:33;1.83;;;0.90;;
7707;SDS011;3896;48.758;8.888;2023-11-21T05:05:00;0.80;;;0.70;;
7707;SDS011;3896;48.758;8.888;2023-11-21T05:07:25;1.23;;;0.70;;
7707;SDS011;3896;48.758;8.888;2023-11-21T05:09:54;2.17;;;0.83;;
7707;SDS011;3896;48.758;8.888;2023-11-21T05:12:21;0.87;;;0.87;;
7707;SDS011;3896;48.758;8.888;2023-11-21T05:14:48;0.93;;;0.83;;
7707;SDS011;3896;48.758;8.888;2023-11-21T05:17:14;0.83;;;0.83;;
7707;SDS011;3896;48.758;8.888;2023-11-21T05:19:39;1.73;;;0.80;;
7707;SDS011;3896;48.758;8.888;2023-11-21T05:22:06;1.67;;;0.60;;
7707;SDS011;3896;48.758;8.888;2023-11-21T05:24:31;1.50;;;1.40;;
7707;SDS011;3896;48.758;8.888;2023-11-21T05:26:57;0.93;;;0.93;;
7707;SDS011;3896;48.758;8.888;2023-11-21T05:29:22;1.80;;;0.90;;
7707;SDS011;3896;48.758;8.888;2023-11-21T05:31:48;2.43;;;1.20;;
7707;SDS011;3896;48.758;8.888;2023-11-21T05:34:14;2.20;;;2.00;;
7707;SDS011;3896;48.758;8.888;2023-11-21T05:36:42;0.80;;;0.80;;
7707;SDS011;3896;48.758;8.888;2023-11-21T05:39:08;0.87;;;0.80;;
7707;SDS011;3896;48.758;8.888;2023-11-21T05:41:36;2.73;;;0.90;;
7707;SDS011;3896;48.758;8.888;2023-11-21T05:44:02;0.80;;;0.80;;
7707;SDS011;3896;48.758;8.888;2023-11-21T05:46:27;0.67;;;0.67;;
7707;SDS011;3896;48.758;8.888;2023-11-21T05:48:53;0.60;;;0.60;;
7707;SDS011;3896;48.758;8.888;2023-11-21T05:51:18;0.60;;;0.60;;
7707;SDS011;3896;48.758;8.888;2023-11-21T05:53:44;0.70;;;0.70;;
7707;SDS011;3896;48.758;8.888;2023-11-21T05:56:10;1.17;;;0.70;;
7707;SDS011;3896;48.758;8.888;2023-11-21T05:58:36;3.67;;;0.83;;
7707;SDS011;3896;48.758;8.888;2023-11-21T06:01:02;1.23;;;0.90;;
7707;SDS011;3896;48.758;8.888;2023-11-21T06:03:32;0.83;;;0.83;;
7707;SDS011;3896;48.758;8.888;2023-11-21T06:05:58;0.80;;;0.80;;
7707;SDS011;3896;48.758;8.888;2023-11-21T06:08:23;1.67;;;0.80;;
7707;SDS011;3896;48.758;8.888;2023-11-21T06:10:49;0.67;;;0.63;;
7707;SDS011;3896;48.758;8.888;2023-11-21T06:13:15;1.13;;;0.77;;
7707;SDS011;3896;48.758;8.888;2023-11-21T06:32:14;0.87;;;0.83;;
7707;SDS011;3896;48.758;8.888;2023-11-21T06:34:41;0.80;;;0.80;;
7707;SDS011;3896;48.758;8.888;2023-11-21T06:37:06;1.17;;;1.17;;
7707;SDS011;3896;48.758;8.888;2023-11-21T06:39:32;0.93;;;0.93;;
7707;SDS011;3896;48.758;8.888;2023-11-21T06:41:57;1.60;;;0.90;;
7707;SDS011;3896;48.758;8.888;2023-11-21T06:44:25;1.10;;;0.80;;
7707;SDS011;3896;48.758;8.888;2023-11-21T06:46:51;0.73;;;0.73;;
7707;SDS011;3896;48.758;8.888;2023-11-21T06:49:16;0.93;;;0.90;;
7707;SDS011;3896;48.758;8.888;2023-11-21T06:51:42;0.73;;;0.73;;
7707;SDS011;3896;48.758;8.888;2023-11-21T06:54:07;0.80;;;0.80;;
7707;SDS011;3896;48.758;8.888;2023-11-21T06:56:33;1.47;;;0.90;;
7707;SDS011;3896;48.758;8.888;2023-11-21T06:58:58;0.80;;;0.80;;
7707;SDS011;3896;48.758;8.888;2023-11-21T07:01:24;1.17;;;1.10;;
7707;SDS011;3896;48.758;8.888;2023-11-21T07:03:49;0.93;;;0.93;;
7707;SDS011;3896;48.758;8.888;2023-11-21T07:09:01;1.17;;;1.07;;
7707;SDS011;3896;48.758;8.888;2023-11-21T07:11:30;2.47;;;0.90;;
7707;SDS011;3896;48.758;8.888;2023-11-21T07:13:56;1.10;;;1.00;;
7707;SDS011;3896;48.758;8.888;2023-11-21T07:16:21;1.10;;;1.00;;
7707;SDS011;3896;48.758;8.888;2023-11-21T07:18:48;0.90;;;0.90;;
7707;SDS011;3896;48.758;8.888;2023-11-21T07:21:14;1.40;;;0.83;;
7707;SDS011;3896;48.758;8.888;2023-11-21T07:23:41;1.07;;;1.07;;
7707;SDS011;3896;48.758;8.888;2023-11-21T07:26:06;1.33;;;1.23;;
7707;SDS011;3896;48.758;8.888;2023-11-21T07:28:34;1.40;;;1.30;;
7707;SDS011;3896;48.758;8.888;2023-11-21T07:31:00;2.30;;;1.10;;
7707;SDS011;3896;48.758;8.888;2023-11-21T07:33:26;1.10;;;1.10;;
7707;SDS011;3896;48.758;8.888;2023-11-21T07:35:52;1.20;;;1.10;;
7707;SDS011;3896;48.758;8.888;2023-11-21T07:38:17;1.00;;;0.90;;
7707;SDS011;3896;48.758;8.888;2023-11-21T07:40:43;1.40;;;1.23;;
7707;SDS011;3896;48.758;8.888;2023-11-21T07:43:08;3.77;;;3.23;;
7707;SDS011;3896;48.758;8.888;2023-11-21T07:45:35;3.93;;;2.73;;
7707;SDS011;3896;48.758;8.888;2023-11-21T07:48:01;2.50;;;2.30;;
7707;SDS011;3896;48.758;8.888;2023-11-21T07:50:28;2.20;;;1.70;;
7707;SDS011;3896;48.758;8.888;2023-11-21T07:52:54;1.53;;;1.43;;
7707;SDS011;3896;48.758;8.888;2023-11-21T07:55:20;1.83;;;1.73;;
7707;SDS011;3896;48.758;8.888;2023-11-21T07:57:45;1.83;;;1.70;;
7707;SDS011;3896;48.758;8.888;2023-11-21T08:00:11;2.07;;;1.67;;
7707;SDS011;3896;48.758;8.888;2023-11-21T08:02:37;2.23;;;1.90;;
7707;SDS011;3896;48.758;8.888;2023-11-21T08:05:04;1.60;;;1.50;;
7707;SDS011;3896;48.758;8.888;2023-11-21T08:07:32;1.93;;;1.80;;
7707;SDS011;3896;48.758;8.888;2023-11-21T08:09:58;1.40;;;1.30;;
7707;SDS011;3896;48.758;8.888;2023-11-21T08:12:23;1.60;;;1.27;;
7707;SDS011;3896;48.758;8.888;2023-11-21T08:14:49;2.90;;;1.60;;
7707;SDS011;3896;48.758;8.888;2023-11-21T08:17:15;1.80;;;1.70;;
7707;SDS011;3896;48.758;8.888;2023-11-21T08:19:40;2.03;;;1.67;;
7707;SDS011;3896;48.758;8.888;2023-11-21T08:22:06;2.13;;;1.70;;
7707;SDS011;3896;48.758;8.888;2023-11-21T08:24:33;1.87;;;1.77;;
7707;SDS011;3896;48.758;8.888;2023-11-21T08:26:58;1.50;;;1.40;;
7707;SDS011;3896;48.758;8.888;2023-11-21T08:29:24;1.23;;;1.20;;
7707;SDS011;3896;48.758;8.888;2023-11-21T08:31:49;1.80;;;1.70;;
7707;SDS011;3896;48.758;8.888;2023-11-21T08:34:15;2.80;;;1.80;;
7707;SDS011;3896;48.758;8.888;2023-11-21T08:36:44;2.00;;;1.90;;
7707;SDS011;3896;48.758;8.888;2023-11-21T08:39:10;1.70;;;1.60;;
7707;SDS011;3896;48.758;8.888;2023-11-21T08:41:36;2.20;;;1.10;;
7707;SDS011;3896;48.758;8.888;2023-11-21T08:44:01;2.50;;;2.30;;
7707;SDS011;3896;48.758;8.888;2023-11-21T08:46:32;2.13;;;2.00;;
7707;SDS011;3896;48.758;8.888;2023-11-21T08:48:58;1.77;;;1.67;;
7707;SDS011;3896;48.758;8.888;2023-11-21T08:51:26;2.40;;;1.90;;
7707;SDS011;3896;48.758;8.888;2023-11-21T08:53:51;3.53;;;1.97;;
7707;SDS011;3896;48.758;8.888;2023-11-21T08:56:17;1.87;;;1.77;;
7707;SDS011;3896;48.758;8.888;2023-11-21T08:58:45;2.23;;;2.07;;
7707;SDS011;3896;48.758;8.888;2023-11-21T09:01:11;2.80;;;2.40;;
7707;SDS011;3896;48.758;8.888;2023-11-21T09:03:37;2.13;;;1.77;;
7707;SDS011;3896;48.758;8.888;2023-11-21T09:06:03;1.70;;;1.60;;
7707;SDS011;3896;48.758;8.888;2023-11-21T09:08:29;1.67;;;1.57;;
7707;SDS011;3896;48.758;8.888;2023-11-21T09:10:55;2.10;;;2.00;;
7707;SDS011;3896;48.758;8.888;2023-11-21T09:13:20;1.50;;;1.40;;
7707;SDS011;3896;48.758;8.888;2023-11-21T09:15:46;1.50;;;1.40;;
7707;SDS011;3896;48.758;8.888;2023-11-21T09:18:15;1.60;;;1.50;;
7707;SDS011;3896;48.758;8.888;2023-11-21T09:20:41;1.83;;;1.40;;
7707;SDS011;3896;48.758;8.888;2023-11-21T09:23:09;1.60;;;1.50;;
7707;SDS011;3896;48.758;8.888;2023-11-21T09:25:34;1.37;;;1.33;;
7707;SDS011;3896;48.758;8.888;2023-11-21T09:28:02;1.40;;;1.30;;
7707;SDS011;3896;48.758;8.888;2023-11-21T09:30:32;3.00;;;2.80;;
7707;SDS011;3896;48.758;8.888;2023-11-21T09:32:58;1.60;;;1.50;;
7707;SDS011;3896;48.758;8.888;2023-11-21T09:35:24;1.73;;;1.63;;
7707;SDS011;3896;48.758;8.888;2023-11-21T09:37:50;1.67;;;1.57;;
7707;SDS011;3896;48.758;8.888;2023-11-21T09:40:17;1.40;;;1.30;;
7707;SDS011;3896;48.758;8.888;2023-11-21T09:45:26;1.77;;;1.67;;
7707;SDS011;3896;48.758;8.888;2023-11-21T09:47:58;3.83;;;1.60;;
7707;SDS011;3896;48.758;8.888;2023-11-21T09:50:24;3.17;;;1.30;;
7707;SDS011;3896;48.758;8.888;2023-11-21T09:53:07;3.20;;;1.30;;
7707;SDS011;3896;48.758;8.888;2023-11-21T09:55:46;1.57;;;1.10;;
7707;SDS011;3896;48.758;8.888;2023-11-21T09:58:16;3.07;;;1.10;;
7707;SDS011;3896;48.758;8.888;2023-11-21T10:00:43;4.63;;;2.63;;
7707;SDS011;3896;48.758;8.888;2023-11-21T10:03:13;4.10;;;2.23;;
7707;SDS011;3896;48.758;8.888;2023-11-21T10:05:40;2.53;;;2.03;;
7707;SDS011;3896;48.758;8.888;2023-11-21T10:08:08;3.60;;;1.67;;
7707;SDS011;3896;48.758;8.888;2023-11-21T10:10:35;1.40;;;1.30;;
7707;SDS011;3896;48.758;8.888;2023-11-21T10:13:02;1.50;;;1.40;;
7707;SDS011;3896;48.758;8.888;2023-11-21T10:15:33;1.30;;;1.30;;
7707;SDS011;3896;48.758;8.888;2023-11-21T10:18:00;1.63;;;1.47;;
7707;SDS011;3896;48.758;8.888;2023-11-21T10:20:32;1.50;;;1.40;;
7707;SDS011;3896;48.758;8.888;2023-11-21T10:22:58;1.37;;;1.27;;
7707;SDS011;3896;48.758;8.888;2023-11-21T10:25:27;1.20;;;1.20;;
7707;SDS011;3896;48.758;8.888;2023-11-21T10:27:57;1.33;;;0.90;;
7707;SDS011;3896;48.758;8.888;2023-11-21T10:30:32;1.43;;;1.33;;
7707;SDS011;3896;48.758;8.888;2023-11-21T10:32:59;1.13;;;1.10;;
7707;SDS011;3896;48.758;8.888;2023-11-21T10:35:46;2.37;;;1.20;;
7707;SDS011;3896;48.758;8.888;2023-11-21T10:38:15;1.10;;;1.10;;
7707;SDS011;3896;48.758;8.888;2023-11-21T10:40:41;0.87;;;0.80;;
7707;SDS011;3896;48.758;8.888;2023-11-21T10:43:09;1.20;;;0.80;;
7707;SDS011;3896;48.758;8.888;2023-11-21T10:45:37;1.03;;;1.03;;
7707;SDS011;3896;48.758;8.888;2023-11-21T10:48:09;1.10;;;1.10;;
7707;SDS011;3896;48.758;8.888;2023-11-21T10:50:37;0.93;;;0.93;;
7707;SDS011;3896;48.758;8.888;2023-11-21T10:53:06;0.80;;;0.80;;
7707;SDS011;3896;48.758;8.888;2023-11-21T10:55:32;0.73;;;0.73;;
7707;SDS011;3896;48.758;8.888;2023-11-21T10:57:59;0.70;;;0.70;;
7707;SDS011;3896;48.758;8.888;2023-11-21T11:00:29;0.50;;;0.50;;
7707;SDS011;3896;48.758;8.888;2023-11-21T11:02:56;0.60;;;0.60;;
7707;SDS011;3896;48.758;8.888;2023-11-21T11:05:24;0.80;;;0.80;;
7707;SDS011;3896;48.758;8.888;2023-11-21T11:10:51;0.70;;;0.70;;
7707;SDS011;3896;48.758;8.888;2023-11-21T11:13:17;1.10;;;1.00;;
7707;SDS011;3896;48.758;8.888;2023-11-21T11:15:50;1.43;;;1.03;;
7707;SDS011;3896;48.758;8.888;2023-11-21T11:18:16;1.60;;;1.27;;
7707;SDS011;3896;48.758;8.888;2023-11-21T11:20:42;1.00;;;0.90;;
7707;SDS011;3896;48.758;8.888;2023-11-21T11:23:19;0.97;;;0.97;;
7707;SDS011;3896;48.758;8.888;2023-11-21T11:26:35;1.50;;;1.30;;
7707;SDS011;3896;48.758;8.888;2023-11-21T11:32:23;1.70;;;1.60;;
7707;SDS011;3896;48.758;8.888;2023-11-21T11:35:07;2.30;;;1.40;;
7707;SDS011;3896;48.758;8.888;2023-11-21T11:37:41;2.10;;;1.90;;
7707;SDS011;3896;48.758;8.888;2023-11-21T11:40:07;2.60;;;2.40;;
7707;SDS011;3896;48.758;8.888;2023-11-21T11:42:35;1.83;;;1.73;;
7707;SDS011;3896;48.758;8.888;2023-11-21T11:45:01;1.53;;;1.43;;
7707;SDS011;3896;48.758;8.888;2023-11-21T11:47:29;2.70;;;2.40;;
7707;SDS011;3896;48.758;8.888;2023-11-21T11:55:17;2.10;;;2.00;;
7707;SDS011;3896;48.758;8.888;2023-11-21T11:57:45;2.37;;;2.17;;
7707;SDS011;3896;48.758;8.888;2023-11-21T12:00:22;2.73;;;2.30;;
7707;SDS011;3896;48.758;8.888;2023-11-21T12:03:02;2.83;;;2.53;;
7707;SDS011;3896;48.758;8.888;2023-11-21T12:05:29;5.70;;;4.00;;
7707;SDS011;3896;48.758;8.888;2023-11-21T12:08:04;7.13;;;4.37;;
7707;SDS011;3896;48.758;8.888;2023-11-21T12:10:31;6.40;;;4.60;;
7707;SDS011;3896;48.758;8.888;2023-11-21T12:13:08;4.10;;;3.27;;
7707;SDS011;3896;48.758;8.888;2023-11-21T12:15:36;3.30;;;3.00;;
7707;SDS011;3896;48.758;8.888;2023-11-21T12:18:03;3.63;;;2.77;;
7707;SDS011;3896;48.758;8.888;2023-11-21T12:20:31;2.97;;;2.67;;
7707;SDS011;3896;48.758;8.888;2023-11-21T12:23:03;3.13;;;2.83;;
7707;SDS011;3896;48.758;8.888;2023-11-21T12:25:30;3.37;;;3.07;;
7707;SDS011;3896;48.758;8.888;2023-11-21T12:27:58;4.53;;;3.90;;
7707;SDS011;3896;48.758;8.888;2023-11-21T12:30:25;3.73;;;3.43;;
7707;SDS011;3896;48.758;8.888;2023-11-21T12:32:56;4.93;;;3.73;;
7707;SDS011;3896;48.758;8.888;2023-11-21T12:35:26;4.43;;;3.67;;
7707;SDS011;3896;48.758;8.888;2023-11-21T12:37:54;4.03;;;3.63;;
7707;SDS011;3896;48.758;8.888;2023-11-21T12:40:22;6.47;;;3.53;;
7707;SDS011;3896;48.758;8.888;2023-11-21T12:42:56;4.60;;;3.67;;
7707;SDS011;3896;48.758;8.888;2023-11-21T12:45:24;4.40;;;3.67;;
7707;SDS011;3896;48.758;8.888;2023-11-21T12:50:24;5.60;;;3.67;;
7707;SDS011;3896;48.758;8.888;2023-11-21T12:53:00;3.93;;;3.53;;
7707;SDS011;3896;48.758;8.888;2023-11-21T12:55:30;4.23;;;3.47;;
7707;SDS011;3896;48.758;8.888;2023-11-21T12:57:57;4.67;;;3.43;;
7707;SDS011;3896;48.758;8.888;2023-11-21T13:00:33;4.33;;;3.77;;
7707;SDS011;3896;48.758;8.888;2023-11-21T13:03:08;3.87;;;3.50;;
7707;SDS011;3896;48.758;8.888;2023-11-21T13:05:37;4.83;;;3.83;;
7707;SDS011;3896;48.758;8.888;2023-11-21T13:08:04;5.83;;;5.23;;
7707;SDS011;3896;48.758;8.888;2023-11-21T13:10:33;4.83;;;3.97;;
7707;SDS011;3896;48.758;8.888;2023-11-21T13:13:01;4.70;;;3.37;;
7707;SDS011;3896;48.758;8.888;2023-11-21T13:15:30;3.43;;;3.10;;
7707;SDS011;3896;48.758;8.888;2023-11-21T13:17:57;3.40;;;3.00;;
7707;SDS011;3896;48.758;8.888;2023-11-21T13:20:24;3.17;;;2.87;;
7707;SDS011;3896;48.758;8.888;2023-11-21T13:22:54;3.27;;;2.97;;
7707;SDS011;3896;48.758;8.888;2023-11-21T13:25:24;3.10;;;2.60;;
7707;SDS011;3896;48.758;8.888;2023-11-21T13:27:56;3.13;;;2.63;;
7707;SDS011;3896;48.758;8.888;2023-11-21T13:30:22;2.97;;;2.50;;
7707;SDS011;3896;48.758;8.888;2023-11-21T13:32:51;3.10;;;2.30;;
7707;SDS011;3896;48.758;8.888;2023-11-21T13:35:18;1.93;;;1.83;;
7707;SDS011;3896;48.758;8.888;2023-11-21T13:37:55;1.77;;;1.67;;
7707;SDS011;3896;48.758;8.888;2023-11-21T13:40:25;1.77;;;1.67;;
7707;SDS011;3896;48.758;8.888;2023-11-21T13:42:54;2.37;;;1.90;;
7707;SDS011;3896;48.758;8.888;2023-11-21T13:45:22;1.03;;;1.03;;
7707;SDS011;3896;48.758;8.888;2023-11-21T13:47:51;0.60;;;0.60;;
7707;SDS011;3896;48.758;8.888;2023-11-21T13:50:22;1.20;;;1.10;;
7707;SDS011;3896;48.758;8.888;2023-11-21T13:52:52;0.80;;;0.80;;
7707;SDS011;3896;48.758;8.888;2023-11-21T13:55:18;0.97;;;0.80;;
7707;SDS011;3896;48.758;8.888;2023-11-21T13:57:44;2.43;;;1.20;;
7707;SDS011;3896;48.758;8.888;2023-11-21T14:00:14;0.80;;;0.80;;
7707;SDS011;3896;48.758;8.888;2023-11-21T14:03:16;0.67;;;0.67;;
7707;SDS011;3896;48.758;8.888;2023-11-21T14:05:47;0.83;;;0.83;;
7707;SDS011;3896;48.758;8.888;2023-11-21T14:08:17;1.50;;;1.40;;
7707;SDS011;3896;48.758;8.888;2023-11-21T14:10:49;1.03;;;0.43;;
7707;SDS011;3896;48.758;8.888;2023-11-21T14:13:22;0.73;;;0.60;;
7707;SDS011;3896;48.758;8.888;2023-11-21T14:15:53;0.90;;;0.90;;
7707;SDS011;3896;48.758;8.888;2023-11-21T14:18:24;0.80;;;0.80;;
7707;SDS011;3896;48.758;8.888;2023-11-21T14:20:59;0.90;;;0.90;;
7707;SDS011;3896;48.758;8.888;2023-11-21T14:23:25;1.47;;;1.43;;
7707;SDS011;3896;48.758;8.888;2023-11-21T14:25:50;2.47;;;2.30;;
7707;SDS011;3896;48.758;8.888;2023-11-21T14:28:16;1.57;;;1.47;;
7707;SDS011;3896;48.758;8.888;2023-11-21T14:30:43;1.90;;;0.90;;
7707;SDS011;3896;48.758;8.888;2023-11-21T14:33:11;1.20;;;1.07;;
7707;SDS011;3896;48.758;8.888;2023-11-21T14:35:37;0.90;;;0.80;;
7707;SDS011;3896;48.758;8.888;2023-11-21T14:38:02;0.90;;;0.90;;
7707;SDS011;3896;48.758;8.888;2023-11-21T14:40:30;1.47;;;1.10;;
7707;SDS011;3896;48.758;8.888;2023-11-21T14:42:59;4.03;;;3.60;;
7707;SDS011;3896;48.758;8.888;2023-11-21T14:45:25;1.70;;;1.60;;
7707;SDS011;3896;48.758;8.888;2023-11-21T14:47:52;1.50;;;1.40;;
7707;SDS011;3896;48.758;8.888;2023-11-21T14:50:29;1.67;;;1.20;;
7707;SDS011;3896;48.758;8.888;2023-11-21T14:53:04;0.87;;;0.87;;
7707;SDS011;3896;48.758;8.888;2023-11-21T14:55:30;0.60;;;0.60;;
7707;SDS011;3896;48.758;8.888;2023-11-21T14:58:15;0.87;;;0.87;;
7707;SDS011;3896;48.758;8.888;2023-11-21T15:00:48;0.40;;;0.40;;
7707;SDS011;3896;48.758;8.888;2023-11-21T15:03:16;0.63;;;0.63;;
7707;SDS011;3896;48.758;8.888;2023-11-21T15:05:57;0.87;;;0.87;;
7707;SDS011;3896;48.758;8.888;2023-11-21T15:08:24;0.80;;;0.80;;
7707;SDS011;3896;48.758;8.888;2023-11-21T15:10:56;1.00;;;1.00;;
7707;SDS011;3896;48.758;8.888;2023-11-21T15:13:22;3.07;;;2.87;;
7707;SDS011;3896;48.758;8.888;2023-11-21T15:15:52;2.23;;;2.03;;
7707;SDS011;3896;48.758;8.888;2023-11-21T15:18:19;1.70;;;1.60;;
7707;SDS011;3896;48.758;8.888;2023-11-21T15:20:45;0.97;;;0.97;;
7707;SDS011;3896;48.758;8.888;2023-11-21T15:23:11;1.00;;;1.00;;
7707;SDS011;3896;48.758;8.888;2023-11-21T15:25:41;1.83;;;0.97;;
7707;SDS011;3896;48.758;8.888;2023-11-21T15:28:07;1.37;;;1.23;;
7707;SDS011;3896;48.758;8.888;2023-11-21T15:30:33;0.87;;;0.87;;
7707;SDS011;3896;48.758;8.888;2023-11-21T15:32:58;1.10;;;1.10;;
7707;SDS011;3896;48.758;8.888;2023-11-21T15:35:24;1.43;;;0.93;;
7707;SDS011;3896;48.758;8.888;2023-11-21T15:37:52;1.20;;;1.10;;
7707;SDS011;3896;48.758;8.888;2023-11-21T15:40:17;0.83;;;0.83;;
7707;SDS011;3896;48.758;8.888;2023-11-21T15:42:43;1.33;;;1.27;;
7707;SDS011;3896;48.758;8.888;2023-11-21T15:45:10;1.33;;;1.23;;
7707;SDS011;3896;48.758;8.888;2023-11-21T15:47:35;1.40;;;1.30;;
7707;SDS011;3896;48.758;8.888;2023-11-21T15:50:01;1.93;;;1.80;;
7707;SDS011;3896;48.758;8.888;2023-11-21T15:52:29;1.67;;;1.57;;